sensor_id;sensor_type;location;lat;lon;timestamp;P1;durP1;ratioP1;P2;durP2;ratioP2
50569;SDS011;36525;49.398;7.614;2022-08-21T00:00:25;10.52;;;2.80;;
50569;SDS011;36525;49.398;7.614;2022-08-21T00:03:02;5.18;;;2.17;;
50569;SDS011;36525;49.398;7.614;2022-08-21T00:05:35;7.43;;;2.25;;
50569;SDS011;36525;49.398;7.614;2022-08-21T00:08:05;5.30;;;2.25;;
50569;SDS011;36525;49.398;7.614;2022-08-21T00:10:33;4.40;;;2.13;;
50569;SDS011;36525;49.398;7.614;2022-08-21T00:13:02;8.02;;;3.05;;
50569;SDS011;36525;49.398;7.614;2022-08-21T00:15:32;8.32;;;2.75;;
50569;SDS011;36525;49.398;7.614;2022-08-21T00:18:01;7.63;;;2.58;;
50569;SDS011;36525;49.398;7.614;2022-08-21T00:20:30;5.18;;;2.45;;
50569;SDS011;36525;49.398;7.614;2022-08-21T00:22:59;7.05;;;2.55;;
50569;SDS011;36525;49.398;7.614;2022-08-21T00:25:27;4.57;;;2.00;;
50569;SDS011;36525;49.398;7.614;2022-08-21T00:27:54;5.55;;;2.20;;
50569;SDS011;36525;49.398;7.614;2022-08-21T00:30:23;4.65;;;2.17;;
50569;SDS011;36525;49.398;7.614;2022-08-21T00:32:52;5.68;;;2.50;;
50569;SDS011;36525;49.398;7.614;2022-08-21T00:35:23;5.40;;;2.40;;
50569;SDS011;36525;49.398;7.614;2022-08-21T00:37:57;5.65;;;2.85;;
50569;SDS011;36525;49.398;7.614;2022-08-21T00:40:29;6.85;;;2.65;;
50569;SDS011;36525;49.398;7.614;2022-08-21T00:43:05;5.47;;;2.55;;
50569;SDS011;36525;49.398;7.614;2022-08-21T00:45:35;5.13;;;2.50;;
50569;SDS011;36525;49.398;7.614;2022-08-21T00:48:02;7.20;;;2.78;;
50569;SDS011;36525;49.398;7.614;2022-08-21T00:50:34;7.80;;;2.42;;
50569;SDS011;36525;49.398;7.614;2022-08-21T00:53:07;8.88;;;2.45;;
50569;SDS011;36525;49.398;7.614;2022-08-21T00:55:36;6.75;;;2.53;;
50569;SDS011;36525;49.398;7.614;2022-08-21T00:58:05;7.18;;;2.50;;
50569;SDS011;36525;49.398;7.614;2022-08-21T01:00:36;5.95;;;2.28;;
50569;SDS011;36525;49.398;7.614;2022-08-21T01:03:07;6.20;;;2.53;;
50569;SDS011;36525;49.398;7.614;2022-08-21T01:05:36;8.02;;;3.00;;
50569;SDS011;36525;49.398;7.614;2022-08-21T01:08:04;6.60;;;2.50;;
50569;SDS011;36525;49.398;7.614;2022-08-21T01:10:32;5.53;;;2.40;;
50569;SDS011;36525;49.398;7.614;2022-08-21T01:13:03;5.75;;;2.30;;
50569;SDS011;36525;49.398;7.614;2022-08-21T01:15:35;4.78;;;2.45;;
50569;SDS011;36525;49.398;7.614;2022-08-21T01:18:08;6.35;;;2.38;;
50569;SDS011;36525;49.398;7.614;2022-08-21T01:20:38;4.65;;;2.25;;
50569;SDS011;36525;49.398;7.614;2022-08-21T01:23:11;8.32;;;3.63;;
50569;SDS011;36525;49.398;7.614;2022-08-21T01:25:38;7.18;;;2.17;;
50569;SDS011;36525;49.398;7.614;2022-08-21T01:28:11;4.68;;;2.28;;
50569;SDS011;36525;49.398;7.614;2022-08-21T01:30:42;6.80;;;2.63;;
50569;SDS011;36525;49.398;7.614;2022-08-21T01:33:10;4.47;;;1.80;;
50569;SDS011;36525;49.398;7.614;2022-08-21T01:35:37;5.45;;;2.47;;
50569;SDS011;36525;49.398;7.614;2022-08-21T01:38:05;7.25;;;3.08;;
50569;SDS011;36525;49.398;7.614;2022-08-21T01:40:32;6.40;;;2.00;;
50569;SDS011;36525;49.398;7.614;2022-08-21T01:43:00;5.93;;;2.58;;
50569;SDS011;36525;49.398;7.614;2022-08-21T01:45:28;7.07;;;2.50;;
50569;SDS011;36525;49.398;7.614;2022-08-21T01:47:56;5.78;;;2.30;;
50569;SDS011;36525;49.398;7.614;2022-08-21T01:50:23;6.13;;;2.70;;
50569;SDS011;36525;49.398;7.614;2022-08-21T01:52:51;5.03;;;2.60;;
50569;SDS011;36525;49.398;7.614;2022-08-21T01:55:18;6.95;;;2.92;;
50569;SDS011;36525;49.398;7.614;2022-08-21T01:57:47;5.15;;;2.47;;
50569;SDS011;36525;49.398;7.614;2022-08-21T02:00:15;6.25;;;2.67;;
50569;SDS011;36525;49.398;7.614;2022-08-21T02:02:45;7.07;;;2.67;;
50569;SDS011;36525;49.398;7.614;2022-08-21T02:05:12;7.55;;;2.72;;
50569;SDS011;36525;49.398;7.614;2022-08-21T02:07:42;6.78;;;2.60;;
50569;SDS011;36525;49.398;7.614;2022-08-21T02:10:14;9.25;;;2.40;;
50569;SDS011;36525;49.398;7.614;2022-08-21T02:12:47;5.90;;;2.08;;
50569;SDS011;36525;49.398;7.614;2022-08-21T02:15:14;6.03;;;2.53;;
50569;SDS011;36525;49.398;7.614;2022-08-21T02:17:43;8.38;;;3.03;;
50569;SDS011;36525;49.398;7.614;2022-08-21T02:20:15;5.20;;;2.38;;
50569;SDS011;36525;49.398;7.614;2022-08-21T02:22:49;5.95;;;3.05;;
50569;SDS011;36525;49.398;7.614;2022-08-21T02:25:17;5.70;;;2.80;;
50569;SDS011;36525;49.398;7.614;2022-08-21T02:27:46;8.80;;;2.80;;
50569;SDS011;36525;49.398;7.614;2022-08-21T02:30:23;7.13;;;2.75;;
50569;SDS011;36525;49.398;7.614;2022-08-21T02:32:53;5.63;;;2.45;;
50569;SDS011;36525;49.398;7.614;2022-08-21T02:35:21;7.88;;;3.13;;
50569;SDS011;36525;49.398;7.614;2022-08-21T02:37:51;5.70;;;2.50;;
50569;SDS011;36525;49.398;7.614;2022-08-21T02:40:31;8.27;;;2.45;;
50569;SDS011;36525;49.398;7.614;2022-08-21T02:43:09;7.10;;;3.20;;
50569;SDS011;36525;49.398;7.614;2022-08-21T02:45:37;6.95;;;2.88;;
50569;SDS011;36525;49.398;7.614;2022-08-21T02:48:08;7.43;;;2.63;;
50569;SDS011;36525;49.398;7.614;2022-08-21T02:50:41;10.63;;;2.75;;
50569;SDS011;36525;49.398;7.614;2022-08-21T02:53:22;7.28;;;2.72;;
50569;SDS011;36525;49.398;7.614;2022-08-21T02:55:50;5.10;;;2.40;;
50569;SDS011;36525;49.398;7.614;2022-08-21T02:58:23;5.43;;;2.20;;
50569;SDS011;36525;49.398;7.614;2022-08-21T03:00:54;5.18;;;2.72;;
50569;SDS011;36525;49.398;7.614;2022-08-21T03:03:21;5.32;;;2.20;;
50569;SDS011;36525;49.398;7.614;2022-08-21T03:05:48;6.20;;;2.70;;
50569;SDS011;36525;49.398;7.614;2022-08-21T03:08:16;5.28;;;2.63;;
50569;SDS011;36525;49.398;7.614;2022-08-21T03:10:48;6.60;;;2.15;;
50569;SDS011;36525;49.398;7.614;2022-08-21T03:15:45;5.13;;;2.33;;
50569;SDS011;36525;49.398;7.614;2022-08-21T03:18:14;4.30;;;2.17;;
50569;SDS011;36525;49.398;7.614;2022-08-21T03:20:43;6.00;;;2.40;;
50569;SDS011;36525;49.398;7.614;2022-08-21T03:23:11;6.47;;;2.42;;
50569;SDS011;36525;49.398;7.614;2022-08-21T03:28:14;5.63;;;2.05;;
50569;SDS011;36525;49.398;7.614;2022-08-21T03:30:44;6.80;;;2.70;;
50569;SDS011;36525;49.398;7.614;2022-08-21T03:33:18;6.82;;;2.45;;
50569;SDS011;36525;49.398;7.614;2022-08-21T03:35:52;6.10;;;2.88;;
50569;SDS011;36525;49.398;7.614;2022-08-21T03:38:29;5.35;;;2.95;;
50569;SDS011;36525;49.398;7.614;2022-08-21T03:40:59;8.18;;;2.83;;
50569;SDS011;36525;49.398;7.614;2022-08-21T03:43:27;5.97;;;2.58;;
50569;SDS011;36525;49.398;7.614;2022-08-21T03:45:56;5.65;;;2.60;;
50569;SDS011;36525;49.398;7.614;2022-08-21T03:48:23;5.93;;;2.85;;
50569;SDS011;36525;49.398;7.614;2022-08-21T03:50:51;7.43;;;3.33;;
50569;SDS011;36525;49.398;7.614;2022-08-21T03:53:19;7.78;;;3.25;;
50569;SDS011;36525;49.398;7.614;2022-08-21T03:55:48;7.28;;;2.70;;
50569;SDS011;36525;49.398;7.614;2022-08-21T03:58:17;7.03;;;2.33;;
50569;SDS011;36525;49.398;7.614;2022-08-21T04:00:50;5.40;;;2.28;;
50569;SDS011;36525;49.398;7.614;2022-08-21T04:03:21;4.60;;;2.22;;
50569;SDS011;36525;49.398;7.614;2022-08-21T04:05:49;10.15;;;3.42;;
50569;SDS011;36525;49.398;7.614;2022-08-21T04:08:17;7.35;;;2.75;;
50569;SDS011;36525;49.398;7.614;2022-08-21T04:10:46;5.53;;;2.75;;
50569;SDS011;36525;49.398;7.614;2022-08-21T04:13:17;6.50;;;2.67;;
50569;SDS011;36525;49.398;7.614;2022-08-21T04:15:44;8.52;;;3.20;;
50569;SDS011;36525;49.398;7.614;2022-08-21T04:18:11;6.90;;;2.90;;
50569;SDS011;36525;49.398;7.614;2022-08-21T04:20:39;5.93;;;2.80;;
50569;SDS011;36525;49.398;7.614;2022-08-21T04:23:19;6.20;;;2.53;;
50569;SDS011;36525;49.398;7.614;2022-08-21T04:25:53;8.23;;;2.42;;
50569;SDS011;36525;49.398;7.614;2022-08-21T04:28:22;4.93;;;2.50;;
50569;SDS011;36525;49.398;7.614;2022-08-21T04:30:55;8.85;;;2.88;;
50569;SDS011;36525;49.398;7.614;2022-08-21T04:33:23;8.43;;;2.70;;
50569;SDS011;36525;49.398;7.614;2022-08-21T04:35:50;9.05;;;3.50;;
50569;SDS011;36525;49.398;7.614;2022-08-21T04:38:18;7.32;;;3.63;;
50569;SDS011;36525;49.398;7.614;2022-08-21T04:40:45;5.80;;;3.25;;
50569;SDS011;36525;49.398;7.614;2022-08-21T04:43:14;8.02;;;3.40;;
50569;SDS011;36525;49.398;7.614;2022-08-21T04:45:43;7.00;;;2.88;;
50569;SDS011;36525;49.398;7.614;2022-08-21T04:48:14;5.75;;;2.83;;
50569;SDS011;36525;49.398;7.614;2022-08-21T04:50:51;6.43;;;3.05;;
50569;SDS011;36525;49.398;7.614;2022-08-21T04:53:30;7.28;;;3.25;;
50569;SDS011;36525;49.398;7.614;2022-08-21T04:56:01;9.05;;;3.45;;
50569;SDS011;36525;49.398;7.614;2022-08-21T04:58:35;7.43;;;2.90;;
50569;SDS011;36525;49.398;7.614;2022-08-21T05:01:06;6.57;;;3.38;;
50569;SDS011;36525;49.398;7.614;2022-08-21T05:03:38;6.38;;;3.03;;
50569;SDS011;36525;49.398;7.614;2022-08-21T05:06:10;6.85;;;3.33;;
50569;SDS011;36525;49.398;7.614;2022-08-21T05:08:39;7.82;;;2.95;;
50569;SDS011;36525;49.398;7.614;2022-08-21T05:11:07;5.20;;;2.35;;
50569;SDS011;36525;49.398;7.614;2022-08-21T05:13:34;7.20;;;2.95;;
50569;SDS011;36525;49.398;7.614;2022-08-21T05:16:02;4.85;;;2.70;;
50569;SDS011;36525;49.398;7.614;2022-08-21T05:18:29;7.70;;;3.30;;
50569;SDS011;36525;49.398;7.614;2022-08-21T05:20:56;7.70;;;3.10;;
50569;SDS011;36525;49.398;7.614;2022-08-21T05:23:23;6.00;;;2.40;;
50569;SDS011;36525;49.398;7.614;2022-08-21T05:25:51;5.05;;;2.75;;
50569;SDS011;36525;49.398;7.614;2022-08-21T05:28:19;6.57;;;2.58;;
50569;SDS011;36525;49.398;7.614;2022-08-21T05:30:46;7.18;;;3.33;;
50569;SDS011;36525;49.398;7.614;2022-08-21T05:33:13;7.88;;;2.85;;
50569;SDS011;36525;49.398;7.614;2022-08-21T05:35:40;7.63;;;3.65;;
50569;SDS011;36525;49.398;7.614;2022-08-21T05:38:07;7.43;;;3.40;;
50569;SDS011;36525;49.398;7.614;2022-08-21T05:40:43;5.57;;;3.03;;
50569;SDS011;36525;49.398;7.614;2022-08-21T05:43:11;6.22;;;3.00;;
50569;SDS011;36525;49.398;7.614;2022-08-21T05:45:38;9.13;;;3.10;;
50569;SDS011;36525;49.398;7.614;2022-08-21T05:48:19;8.07;;;3.38;;
50569;SDS011;36525;49.398;7.614;2022-08-21T05:50:49;5.47;;;2.88;;
50569;SDS011;36525;49.398;7.614;2022-08-21T05:53:18;6.30;;;3.42;;
50569;SDS011;36525;49.398;7.614;2022-08-21T05:55:46;6.55;;;2.85;;
50569;SDS011;36525;49.398;7.614;2022-08-21T05:58:18;5.38;;;2.80;;
50569;SDS011;36525;49.398;7.614;2022-08-21T06:00:47;5.57;;;2.83;;
50569;SDS011;36525;49.398;7.614;2022-08-21T06:03:19;7.68;;;3.60;;
50569;SDS011;36525;49.398;7.614;2022-08-21T06:05:49;7.55;;;3.20;;
50569;SDS011;36525;49.398;7.614;2022-08-21T06:08:18;7.68;;;3.20;;
50569;SDS011;36525;49.398;7.614;2022-08-21T06:10:46;7.80;;;3.38;;
50569;SDS011;36525;49.398;7.614;2022-08-21T06:13:16;6.28;;;2.40;;
50569;SDS011;36525;49.398;7.614;2022-08-21T06:15:44;9.85;;;3.40;;
50569;SDS011;36525;49.398;7.614;2022-08-21T06:18:13;12.25;;;3.30;;
50569;SDS011;36525;49.398;7.614;2022-08-21T06:20:41;7.00;;;3.10;;
50569;SDS011;36525;49.398;7.614;2022-08-21T06:23:09;7.57;;;2.67;;
50569;SDS011;36525;49.398;7.614;2022-08-21T06:25:36;5.45;;;3.05;;
50569;SDS011;36525;49.398;7.614;2022-08-21T06:28:03;6.30;;;3.13;;
50569;SDS011;36525;49.398;7.614;2022-08-21T06:30:34;8.32;;;3.42;;
50569;SDS011;36525;49.398;7.614;2022-08-21T06:33:03;7.25;;;3.17;;
50569;SDS011;36525;49.398;7.614;2022-08-21T06:35:30;7.28;;;3.08;;
50569;SDS011;36525;49.398;7.614;2022-08-21T06:37:57;9.32;;;3.40;;
50569;SDS011;36525;49.398;7.614;2022-08-21T06:40:25;7.53;;;3.50;;
50569;SDS011;36525;49.398;7.614;2022-08-21T06:42:55;7.97;;;3.13;;
50569;SDS011;36525;49.398;7.614;2022-08-21T06:45:26;7.38;;;3.17;;
50569;SDS011;36525;49.398;7.614;2022-08-21T06:47:57;5.43;;;2.63;;
50569;SDS011;36525;49.398;7.614;2022-08-21T06:50:25;6.90;;;3.20;;
50569;SDS011;36525;49.398;7.614;2022-08-21T06:53:03;9.20;;;3.10;;
50569;SDS011;36525;49.398;7.614;2022-08-21T06:55:33;9.57;;;3.17;;
50569;SDS011;36525;49.398;7.614;2022-08-21T06:58:00;6.35;;;2.80;;
50569;SDS011;36525;49.398;7.614;2022-08-21T07:00:27;8.70;;;3.38;;
50569;SDS011;36525;49.398;7.614;2022-08-21T07:02:54;5.70;;;2.85;;
50569;SDS011;36525;49.398;7.614;2022-08-21T07:05:22;9.00;;;2.90;;
50569;SDS011;36525;49.398;7.614;2022-08-21T07:07:52;7.70;;;2.45;;
50569;SDS011;36525;49.398;7.614;2022-08-21T07:10:19;8.05;;;2.30;;
50569;SDS011;36525;49.398;7.614;2022-08-21T07:12:48;5.95;;;2.03;;
50569;SDS011;36525;49.398;7.614;2022-08-21T07:15:27;5.57;;;2.15;;
50569;SDS011;36525;49.398;7.614;2022-08-21T07:17:56;7.88;;;2.17;;
50569;SDS011;36525;49.398;7.614;2022-08-21T07:20:24;4.72;;;1.80;;
50569;SDS011;36525;49.398;7.614;2022-08-21T07:22:52;6.15;;;2.20;;
50569;SDS011;36525;49.398;7.614;2022-08-21T07:25:20;5.47;;;1.83;;
50569;SDS011;36525;49.398;7.614;2022-08-21T07:27:47;6.72;;;2.30;;
50569;SDS011;36525;49.398;7.614;2022-08-21T07:30:14;10.38;;;2.75;;
50569;SDS011;36525;49.398;7.614;2022-08-21T07:32:41;5.25;;;1.70;;
50569;SDS011;36525;49.398;7.614;2022-08-21T07:35:08;7.97;;;2.13;;
50569;SDS011;36525;49.398;7.614;2022-08-21T07:37:35;5.82;;;1.95;;
50569;SDS011;36525;49.398;7.614;2022-08-21T07:40:02;7.40;;;1.80;;
50569;SDS011;36525;49.398;7.614;2022-08-21T07:42:30;7.13;;;1.85;;
50569;SDS011;36525;49.398;7.614;2022-08-21T07:44:57;7.40;;;1.60;;
50569;SDS011;36525;49.398;7.614;2022-08-21T07:47:24;5.28;;;1.60;;
50569;SDS011;36525;49.398;7.614;2022-08-21T07:50:07;6.53;;;1.60;;
50569;SDS011;36525;49.398;7.614;2022-08-21T07:52:37;5.15;;;1.60;;
50569;SDS011;36525;49.398;7.614;2022-08-21T07:55:06;5.68;;;1.60;;
50569;SDS011;36525;49.398;7.614;2022-08-21T07:57:39;7.47;;;1.65;;
50569;SDS011;36525;49.398;7.614;2022-08-21T08:00:07;6.43;;;1.50;;
50569;SDS011;36525;49.398;7.614;2022-08-21T08:02:44;6.05;;;2.08;;
50569;SDS011;36525;49.398;7.614;2022-08-21T08:05:16;5.70;;;1.60;;
50569;SDS011;36525;49.398;7.614;2022-08-21T08:07:45;7.32;;;2.10;;
50569;SDS011;36525;49.398;7.614;2022-08-21T08:10:13;6.88;;;2.10;;
50569;SDS011;36525;49.398;7.614;2022-08-21T08:12:42;6.78;;;1.90;;
50569;SDS011;36525;49.398;7.614;2022-08-21T08:15:12;8.00;;;2.00;;
50569;SDS011;36525;49.398;7.614;2022-08-21T08:17:43;6.75;;;1.67;;
50569;SDS011;36525;49.398;7.614;2022-08-21T08:20:10;6.38;;;1.80;;
50569;SDS011;36525;49.398;7.614;2022-08-21T08:22:39;6.15;;;1.48;;
50569;SDS011;36525;49.398;7.614;2022-08-21T08:25:07;4.90;;;1.77;;
50569;SDS011;36525;49.398;7.614;2022-08-21T08:27:37;11.98;;;2.45;;
50569;SDS011;36525;49.398;7.614;2022-08-21T08:30:06;11.57;;;2.53;;
50569;SDS011;36525;49.398;7.614;2022-08-21T08:32:37;9.25;;;2.35;;
50569;SDS011;36525;49.398;7.614;2022-08-21T08:35:05;6.18;;;1.60;;
50569;SDS011;36525;49.398;7.614;2022-08-21T08:37:34;9.07;;;1.80;;
50569;SDS011;36525;49.398;7.614;2022-08-21T08:40:10;7.47;;;1.67;;
50569;SDS011;36525;49.398;7.614;2022-08-21T08:43:00;7.47;;;1.88;;
50569;SDS011;36525;49.398;7.614;2022-08-21T08:45:27;11.25;;;1.63;;
50569;SDS011;36525;49.398;7.614;2022-08-21T08:48:00;10.63;;;2.17;;
50569;SDS011;36525;49.398;7.614;2022-08-21T08:53:12;7.38;;;1.65;;
50569;SDS011;36525;49.398;7.614;2022-08-21T08:55:48;7.87;;;1.70;;
50569;SDS011;36525;49.398;7.614;2022-08-21T08:58:20;5.20;;;1.38;;
50569;SDS011;36525;49.398;7.614;2022-08-21T09:00:51;6.72;;;1.40;;
50569;SDS011;36525;49.398;7.614;2022-08-21T09:03:19;6.28;;;1.20;;
50569;SDS011;36525;49.398;7.614;2022-08-21T09:08:57;9.20;;;1.60;;
50569;SDS011;36525;49.398;7.614;2022-08-21T09:12:27;5.60;;;1.67;;
50569;SDS011;36525;49.398;7.614;2022-08-21T09:15:16;6.45;;;1.70;;
50569;SDS011;36525;49.398;7.614;2022-08-21T09:21:53;8.88;;;1.55;;
50569;SDS011;36525;49.398;7.614;2022-08-21T09:24:40;6.75;;;1.58;;
50569;SDS011;36525;49.398;7.614;2022-08-21T09:27:28;8.85;;;1.50;;
50569;SDS011;36525;49.398;7.614;2022-08-21T09:29:56;6.82;;;1.80;;
50569;SDS011;36525;49.398;7.614;2022-08-21T09:32:26;5.82;;;1.40;;
50569;SDS011;36525;49.398;7.614;2022-08-21T09:35:19;6.95;;;1.95;;
50569;SDS011;36525;49.398;7.614;2022-08-21T09:43:17;9.20;;;1.50;;
50569;SDS011;36525;49.398;7.614;2022-08-21T09:45:47;6.30;;;1.63;;
50569;SDS011;36525;49.398;7.614;2022-08-21T09:48:23;9.00;;;1.60;;
50569;SDS011;36525;49.398;7.614;2022-08-21T09:50:52;7.20;;;1.85;;
50569;SDS011;36525;49.398;7.614;2022-08-21T09:53:27;5.40;;;1.58;;
50569;SDS011;36525;49.398;7.614;2022-08-21T09:56:05;5.83;;;1.47;;
50569;SDS011;36525;49.398;7.614;2022-08-21T09:59:14;5.30;;;1.60;;
50569;SDS011;36525;49.398;7.614;2022-08-21T10:01:53;8.10;;;1.60;;
50569;SDS011;36525;49.398;7.614;2022-08-21T10:04:30;6.85;;;1.90;;
50569;SDS011;36525;49.398;7.614;2022-08-21T10:07:09;9.02;;;1.65;;
50569;SDS011;36525;49.398;7.614;2022-08-21T10:09:39;5.57;;;1.45;;
50569;SDS011;36525;49.398;7.614;2022-08-21T10:21:02;6.97;;;1.80;;
50569;SDS011;36525;49.398;7.614;2022-08-21T10:23:56;4.38;;;1.65;;
50569;SDS011;36525;49.398;7.614;2022-08-21T10:29:28;9.60;;;2.05;;
50569;SDS011;36525;49.398;7.614;2022-08-21T10:43:26;5.75;;;1.42;;
50569;SDS011;36525;49.398;7.614;2022-08-21T10:48:46;6.32;;;1.67;;
50569;SDS011;36525;49.398;7.614;2022-08-21T10:56:38;9.10;;;1.88;;
50569;SDS011;36525;49.398;7.614;2022-08-21T11:01:50;6.60;;;1.50;;
50569;SDS011;36525;49.398;7.614;2022-08-21T11:04:59;5.88;;;1.58;;
50569;SDS011;36525;49.398;7.614;2022-08-21T11:07:33;7.25;;;1.95;;
50569;SDS011;36525;49.398;7.614;2022-08-21T11:10:10;3.38;;;1.05;;
50569;SDS011;36525;49.398;7.614;2022-08-21T11:13:01;3.90;;;1.30;;
50569;SDS011;36525;49.398;7.614;2022-08-21T11:15:58;3.80;;;1.27;;
50569;SDS011;36525;49.398;7.614;2022-08-21T11:18:32;5.53;;;1.30;;
50569;SDS011;36525;49.398;7.614;2022-08-21T11:21:27;6.88;;;1.60;;
50569;SDS011;36525;49.398;7.614;2022-08-21T11:24:10;7.47;;;1.70;;
50569;SDS011;36525;49.398;7.614;2022-08-21T11:26:57;5.13;;;1.30;;
50569;SDS011;36525;49.398;7.614;2022-08-21T11:29:28;5.15;;;1.25;;
50569;SDS011;36525;49.398;7.614;2022-08-21T11:38:42;3.70;;;1.40;;
50569;SDS011;36525;49.398;7.614;2022-08-21T11:41:30;6.95;;;1.63;;
50569;SDS011;36525;49.398;7.614;2022-08-21T11:50:34;4.40;;;1.50;;
50569;SDS011;36525;49.398;7.614;2022-08-21T11:53:50;8.60;;;1.52;;
50569;SDS011;36525;49.398;7.614;2022-08-21T11:56:37;7.78;;;1.75;;
50569;SDS011;36525;49.398;7.614;2022-08-21T11:59:16;3.97;;;1.35;;
50569;SDS011;36525;49.398;7.614;2022-08-21T12:01:50;3.88;;;1.20;;
50569;SDS011;36525;49.398;7.614;2022-08-21T12:04:59;5.35;;;1.83;;
50569;SDS011;36525;49.398;7.614;2022-08-21T12:08:27;6.93;;;1.50;;
50569;SDS011;36525;49.398;7.614;2022-08-21T12:14:10;4.25;;;0.98;;
50569;SDS011;36525;49.398;7.614;2022-08-21T12:16:41;5.70;;;1.48;;
50569;SDS011;36525;49.398;7.614;2022-08-21T12:21:52;5.28;;;1.23;;
50569;SDS011;36525;49.398;7.614;2022-08-21T12:24:36;4.53;;;1.23;;
50569;SDS011;36525;49.398;7.614;2022-08-21T12:29:50;3.83;;;1.30;;
50569;SDS011;36525;49.398;7.614;2022-08-21T12:32:28;4.97;;;1.27;;
50569;SDS011;36525;49.398;7.614;2022-08-21T12:35:44;5.93;;;1.45;;
50569;SDS011;36525;49.398;7.614;2022-08-21T12:41:19;4.80;;;1.30;;
50569;SDS011;36525;49.398;7.614;2022-08-21T12:43:51;5.50;;;1.45;;
50569;SDS011;36525;49.398;7.614;2022-08-21T12:46:22;3.72;;;1.38;;
50569;SDS011;36525;49.398;7.614;2022-08-21T12:49:00;6.45;;;1.58;;
50569;SDS011;36525;49.398;7.614;2022-08-21T12:51:56;4.82;;;1.38;;
50569;SDS011;36525;49.398;7.614;2022-08-21T12:54:37;3.60;;;1.20;;
50569;SDS011;36525;49.398;7.614;2022-08-21T12:57:08;5.28;;;1.23;;
50569;SDS011;36525;49.398;7.614;2022-08-21T12:59:53;5.70;;;1.33;;
50569;SDS011;36525;49.398;7.614;2022-08-21T13:02:24;5.22;;;1.40;;
50569;SDS011;36525;49.398;7.614;2022-08-21T13:04:56;4.43;;;1.40;;
50569;SDS011;36525;49.398;7.614;2022-08-21T13:07:29;4.20;;;1.25;;
50569;SDS011;36525;49.398;7.614;2022-08-21T13:10:20;5.60;;;2.10;;
50569;SDS011;36525;49.398;7.614;2022-08-21T13:12:56;5.68;;;1.45;;
50569;SDS011;36525;49.398;7.614;2022-08-21T13:15:38;5.03;;;1.40;;
50569;SDS011;36525;49.398;7.614;2022-08-21T13:18:21;7.90;;;1.40;;
50569;SDS011;36525;49.398;7.614;2022-08-21T13:21:02;5.25;;;1.77;;
50569;SDS011;36525;49.398;7.614;2022-08-21T13:23:40;4.95;;;1.10;;
50569;SDS011;36525;49.398;7.614;2022-08-21T13:26:17;5.47;;;1.23;;
50569;SDS011;36525;49.398;7.614;2022-08-21T13:28:47;5.32;;;1.42;;
50569;SDS011;36525;49.398;7.614;2022-08-21T13:31:17;5.22;;;1.10;;
50569;SDS011;36525;49.398;7.614;2022-08-21T13:33:53;5.57;;;1.38;;
50569;SDS011;36525;49.398;7.614;2022-08-21T13:36:24;4.97;;;1.25;;
50569;SDS011;36525;49.398;7.614;2022-08-21T13:38:56;5.25;;;1.20;;
50569;SDS011;36525;49.398;7.614;2022-08-21T13:41:27;3.42;;;0.93;;
50569;SDS011;36525;49.398;7.614;2022-08-21T13:44:18;3.80;;;1.30;;
50569;SDS011;36525;49.398;7.614;2022-08-21T13:47:09;3.78;;;1.10;;
50569;SDS011;36525;49.398;7.614;2022-08-21T13:49:40;3.05;;;1.27;;
50569;SDS011;36525;49.398;7.614;2022-08-21T13:52:30;6.32;;;1.40;;
50569;SDS011;36525;49.398;7.614;2022-08-21T13:55:07;5.07;;;1.08;;
50569;SDS011;36525;49.398;7.614;2022-08-21T13:57:39;4.18;;;1.40;;
50569;SDS011;36525;49.398;7.614;2022-08-21T14:02:51;5.43;;;1.10;;
50569;SDS011;36525;49.398;7.614;2022-08-21T14:05:21;4.93;;;1.27;;
50569;SDS011;36525;49.398;7.614;2022-08-21T14:08:07;4.20;;;1.20;;
50569;SDS011;36525;49.398;7.614;2022-08-21T14:10:42;3.92;;;1.45;;
50569;SDS011;36525;49.398;7.614;2022-08-21T14:13:40;4.30;;;1.20;;
50569;SDS011;36525;49.398;7.614;2022-08-21T14:16:22;5.47;;;1.30;;
50569;SDS011;36525;49.398;7.614;2022-08-21T14:21:33;4.43;;;1.30;;
50569;SDS011;36525;49.398;7.614;2022-08-21T14:27:04;3.40;;;1.10;;
50569;SDS011;36525;49.398;7.614;2022-08-21T14:29:39;2.33;;;1.10;;
50569;SDS011;36525;49.398;7.614;2022-08-21T14:32:11;4.63;;;1.30;;
50569;SDS011;36525;49.398;7.614;2022-08-21T14:34:50;4.70;;;1.05;;
50569;SDS011;36525;49.398;7.614;2022-08-21T14:37:20;4.45;;;1.33;;
50569;SDS011;36525;49.398;7.614;2022-08-21T14:39:48;3.88;;;1.30;;
50569;SDS011;36525;49.398;7.614;2022-08-21T14:42:15;5.47;;;1.30;;
50569;SDS011;36525;49.398;7.614;2022-08-21T14:44:42;4.60;;;1.35;;
50569;SDS011;36525;49.398;7.614;2022-08-21T14:47:09;3.90;;;1.00;;
50569;SDS011;36525;49.398;7.614;2022-08-21T14:49:37;4.90;;;1.30;;
50569;SDS011;36525;49.398;7.614;2022-08-21T14:52:03;4.00;;;1.40;;
50569;SDS011;36525;49.398;7.614;2022-08-21T14:54:31;3.30;;;1.02;;
50569;SDS011;36525;49.398;7.614;2022-08-21T14:57:00;3.97;;;1.23;;
50569;SDS011;36525;49.398;7.614;2022-08-21T14:59:32;2.90;;;1.20;;
50569;SDS011;36525;49.398;7.614;2022-08-21T15:02:01;2.63;;;0.80;;
50569;SDS011;36525;49.398;7.614;2022-08-21T15:04:30;2.60;;;0.98;;
50569;SDS011;36525;49.398;7.614;2022-08-21T15:06:58;4.35;;;1.30;;
50569;SDS011;36525;49.398;7.614;2022-08-21T15:09:25;2.97;;;0.90;;
50569;SDS011;36525;49.398;7.614;2022-08-21T15:11:53;3.95;;;1.33;;
50569;SDS011;36525;49.398;7.614;2022-08-21T15:14:27;3.25;;;1.17;;
50569;SDS011;36525;49.398;7.614;2022-08-21T15:16:57;4.20;;;1.08;;
50569;SDS011;36525;49.398;7.614;2022-08-21T15:19:24;4.03;;;0.90;;
50569;SDS011;36525;49.398;7.614;2022-08-21T15:21:52;2.95;;;1.17;;
50569;SDS011;36525;49.398;7.614;2022-08-21T15:24:19;5.00;;;1.25;;
50569;SDS011;36525;49.398;7.614;2022-08-21T15:26:46;3.13;;;1.20;;
50569;SDS011;36525;49.398;7.614;2022-08-21T15:29:14;3.35;;;1.13;;
50569;SDS011;36525;49.398;7.614;2022-08-21T15:31:52;5.55;;;1.13;;
50569;SDS011;36525;49.398;7.614;2022-08-21T15:34:22;4.78;;;1.40;;
50569;SDS011;36525;49.398;7.614;2022-08-21T15:36:55;2.80;;;1.00;;
50569;SDS011;36525;49.398;7.614;2022-08-21T15:39:24;3.33;;;1.13;;
50569;SDS011;36525;49.398;7.614;2022-08-21T15:41:57;9.85;;;1.27;;
50569;SDS011;36525;49.398;7.614;2022-08-21T15:44:28;4.78;;;1.10;;
50569;SDS011;36525;49.398;7.614;2022-08-21T15:46:55;5.45;;;1.60;;
50569;SDS011;36525;49.398;7.614;2022-08-21T15:49:22;5.13;;;1.50;;
50569;SDS011;36525;49.398;7.614;2022-08-21T15:51:49;3.03;;;1.10;;
50569;SDS011;36525;49.398;7.614;2022-08-21T15:54:17;5.70;;;1.40;;
50569;SDS011;36525;49.398;7.614;2022-08-21T15:56:45;7.10;;;1.23;;
50569;SDS011;36525;49.398;7.614;2022-08-21T15:59:17;5.70;;;1.73;;
50569;SDS011;36525;49.398;7.614;2022-08-21T16:01:51;4.57;;;1.30;;
50569;SDS011;36525;49.398;7.614;2022-08-21T16:04:21;4.38;;;1.50;;
50569;SDS011;36525;49.398;7.614;2022-08-21T16:06:52;6.18;;;1.50;;
50569;SDS011;36525;49.398;7.614;2022-08-21T16:09:27;4.53;;;1.30;;
50569;SDS011;36525;49.398;7.614;2022-08-21T16:11:54;5.63;;;1.10;;
50569;SDS011;36525;49.398;7.614;2022-08-21T16:14:21;5.20;;;1.20;;
50569;SDS011;36525;49.398;7.614;2022-08-21T16:16:48;6.05;;;1.20;;
50569;SDS011;36525;49.398;7.614;2022-08-21T16:19:15;3.70;;;1.10;;
50569;SDS011;36525;49.398;7.614;2022-08-21T16:21:42;4.85;;;1.25;;
50569;SDS011;36525;49.398;7.614;2022-08-21T16:24:10;3.15;;;1.00;;
50569;SDS011;36525;49.398;7.614;2022-08-21T16:26:37;4.05;;;1.48;;
50569;SDS011;36525;49.398;7.614;2022-08-21T16:29:05;6.22;;;1.30;;
50569;SDS011;36525;49.398;7.614;2022-08-21T16:31:33;5.78;;;1.52;;
50569;SDS011;36525;49.398;7.614;2022-08-21T16:34:00;4.18;;;1.50;;
50569;SDS011;36525;49.398;7.614;2022-08-21T16:36:28;5.95;;;1.67;;
50569;SDS011;36525;49.398;7.614;2022-08-21T16:38:56;4.70;;;1.48;;
50569;SDS011;36525;49.398;7.614;2022-08-21T16:41:25;4.13;;;1.10;;
50569;SDS011;36525;49.398;7.614;2022-08-21T16:43:57;4.18;;;1.20;;
50569;SDS011;36525;49.398;7.614;2022-08-21T16:46:32;6.30;;;1.20;;